Time,TemperatureF,DewpointF,PressureIn,WindDirection,WindDirectionDegrees,WindSpeedMPH,WindSpeedGustMPH,Humidity,HourlyPrecipIn,Conditions,Clouds,dailyrainin,SoftwareType,DateUTC
2013-02-16 00:01:00,42.0,41.0,30.12,North,0,0.0,0.0,96,0.00,,,0.00,,2013-02-16 08:01:00,
2013-02-16 00:11:00,42.0,41.0,30.12,North,0,0.0,0.0,96,0.00,,,0.00,,2013-02-16 08:11:00,
2013-02-16 00:21:00,42.0,41.0,30.12,North,0,0.0,1.0,96,0.00,,,0.00,,2013-02-16 08:21:00,
2013-02-16 00:31:00,42.0,41.0,30.12,North,0,0.0,1.0,96,0.00,,,0.00,,2013-02-16 08:31:00,
2013-02-16 00:41:00,42.0,41.0,30.12,North,0,0.0,1.0,96,0.00,,,0.00,,2013-02-16 08:41:00,
2013-02-16 00:52:00,42.0,41.0,30.11,North,0,0.0,1.0,96,0.00,,,0.00,,2013-02-16 08:52:00,
2013-02-16 01:01:00,42.0,41.0,30.12,North,0,0.0,2.0,96,0.00,,,0.00,,2013-02-16 09:01:00,
2013-02-16 01:11:00,42.0,41.0,30.12,North,0,0.0,2.0,96,0.00,,,0.00,,2013-02-16 09:11:00,
2013-02-16 01:21:00,42.0,41.0,30.11,North,0,0.0,2.0,96,0.00,,,0.00,,2013-02-16 09:21:00,
2013-02-16 01:31:00,42.0,41.0,30.11,North,0,0.0,3.0,96,0.00,,,0.00,,2013-02-16 09:31:00,
2013-02-16 01:42:00,42.0,41.0,30.11,North,0,0.0,3.0,96,0.00,,,0.00,,2013-02-16 09:42:00,
2013-02-16 01:51:00,42.0,41.0,30.11,SSW,198,2.0,5.0,96,0.00,,,0.00,,2013-02-16 09:51:00,
2013-02-16 02:01:00,42.0,41.0,30.11,SSW,197,1.0,5.0,96,0.00,,,0.00,,2013-02-16 10:01:00,
2013-02-16 02:11:00,42.0,41.0,30.11,North,0,0.0,4.0,96,0.00,,,0.00,,2013-02-16 10:11:00,
2013-02-16 02:21:00,42.0,41.0,30.11,North,0,0.0,4.0,96,0.00,,,0.00,,2013-02-16 10:21:00,
2013-02-16 02:31:00,42.0,41.0,30.11,North,0,0.0,3.0,96,0.00,,,0.00,,2013-02-16 10:31:00,
2013-02-16 02:41:00,42.0,41.0,30.11,North,0,0.0,3.0,96,0.00,,,0.00,,2013-02-16 10:41:00,
2013-02-16 02:52:00,42.0,41.0,30.10,South,179,1.0,5.0,96,0.00,,,0.00,,2013-02-16 10:52:00,
2013-02-16 03:01:00,42.0,41.0,30.09,South,178,2.0,5.0,96,0.00,,,0.00,,2013-02-16 11:01:00,
2013-02-16 03:11:00,42.0,41.0,30.09,South,178,2.0,5.0,96,0.00,,,0.00,,2013-02-16 11:11:00,
2013-02-16 03:22:00,41.0,40.0,30.09,SSE,164,2.0,7.0,97,0.00,,,0.00,,2013-02-16 11:22:00,
2013-02-16 03:31:00,42.0,41.0,30.09,South,175,1.0,5.0,97,0.00,,,0.00,,2013-02-16 11:31:00,
2013-02-16 03:42:00,42.0,41.0,30.09,South,175,1.0,5.0,97,0.00,,,0.00,,2013-02-16 11:42:00,
2013-02-16 03:52:00,41.0,40.0,30.09,SSE,164,1.0,6.0,97,0.00,,,0.00,,2013-02-16 11:52:00,
2013-02-16 04:01:00,42.0,41.0,30.09,South,179,3.0,10.0,97,0.00,,,0.00,,2013-02-16 12:01:00,
2013-02-16 04:12:00,42.0,41.0,30.09,South,179,3.0,10.0,97,0.00,,,0.00,,2013-02-16 12:12:00,
2013-02-16 04:22:00,42.0,41.0,30.09,South,182,5.0,13.0,97,0.00,,,0.00,,2013-02-16 12:22:00,
2013-02-16 04:32:00,42.0,41.0,30.08,South,176,4.0,10.0,97,0.00,,,0.00,,2013-02-16 12:32:00,
2013-02-16 04:42:00,42.0,41.0,30.08,South,176,4.0,10.0,97,0.00,,,0.00,,2013-02-16 12:42:00,
2013-02-16 04:52:00,43.0,42.0,30.08,South,169,3.0,9.0,97,0.00,,,0.00,,2013-02-16 12:52:00,
2013-02-16 05:01:00,43.0,42.0,30.08,South,182,6.0,12.0,97,0.00,,,0.00,,2013-02-16 13:01:00,
2013-02-16 05:11:00,44.0,43.0,30.08,South,189,6.0,12.0,97,0.00,,,0.00,,2013-02-16 13:11:00,
2013-02-16 05:21:00,44.0,43.0,30.08,South,189,6.0,12.0,97,0.00,,,0.00,,2013-02-16 13:21:00,
2013-02-16 05:31:00,44.0,43.0,30.09,SW,221,5.0,12.0,96,0.00,,,0.00,,2013-02-16 13:31:00,
2013-02-16 05:41:00,44.0,43.0,30.09,SW,221,5.0,12.0,96,0.00,,,0.00,,2013-02-16 13:41:00,
2013-02-16 05:51:00,45.0,44.0,30.09,SSW,213,6.0,13.0,96,0.00,,,0.00,,2013-02-16 13:51:00,
2013-02-16 06:01:00,45.0,44.0,30.09,SSW,205,7.0,12.0,95,0.00,,,0.00,,2013-02-16 14:01:00,
2013-02-16 06:11:00,45.0,44.0,30.09,SSW,205,7.0,12.0,95,0.00,,,0.00,,2013-02-16 14:11:00,
2013-02-16 06:21:00,45.0,44.0,30.09,SW,227,5.0,14.0,95,0.00,,,0.00,,2013-02-16 14:21:00,
2013-02-16 06:32:00,45.0,43.0,30.09,SW,221,6.0,13.0,94,0.00,,,0.00,,2013-02-16 14:32:00,
2013-02-16 06:41:00,45.0,43.0,30.09,SW,221,6.0,13.0,94,0.00,,,0.00,,2013-02-16 14:41:00,
2013-02-16 06:52:00,45.0,43.0,30.09,SSW,213,4.0,11.0,94,0.00,,,0.00,,2013-02-16 14:52:00,
2013-02-16 07:01:00,45.0,43.0,30.09,South,176,2.0,10.0,94,0.00,,,0.00,,2013-02-16 15:01:00,
2013-02-16 07:11:00,45.0,43.0,30.09,South,176,2.0,10.0,94,0.00,,,0.00,,2013-02-16 15:11:00,
2013-02-16 07:21:00,45.0,43.0,30.09,South,190,2.0,6.0,94,0.00,,,0.00,,2013-02-16 15:21:00,
2013-02-16 07:31:00,45.0,43.0,30.09,South,191,10.0,11.0,93,0.00,,,0.00,,2013-02-16 15:31:00,
2013-02-16 07:41:00,45.0,43.0,30.09,South,191,10.0,11.0,93,0.00,,,0.00,,2013-02-16 15:41:00,
2013-02-16 07:52:00,45.0,43.0,30.10,SW,221,5.0,12.0,93,0.00,,,0.00,,2013-02-16 15:52:00,
2013-02-16 08:01:00,45.0,43.0,30.10,SSW,192,3.0,10.0,92,0.00,,,0.00,,2013-02-16 16:01:00,
2013-02-16 08:11:00,45.0,43.0,30.10,SSW,192,3.0,10.0,92,0.00,,,0.00,,2013-02-16 16:11:00,
2013-02-16 08:21:00,45.0,43.0,30.10,SSW,202,5.0,12.0,92,0.00,,,0.00,,2013-02-16 16:21:00,
2013-02-16 08:32:00,46.0,44.0,30.11,SSW,208,1.0,10.0,92,0.00,,,0.00,,2013-02-16 16:32:00,
2013-02-16 08:41:00,46.0,44.0,30.11,SSW,208,1.0,10.0,92,0.00,,,0.00,,2013-02-16 16:41:00,
2013-02-16 08:51:00,46.0,44.0,30.11,SW,218,6.0,11.0,91,0.00,,,0.00,,2013-02-16 16:51:00,
2013-02-16 09:01:00,46.0,44.0,30.11,SSW,206,2.0,9.0,91,0.00,,,0.00,,2013-02-16 17:01:00,
2013-02-16 09:11:00,46.0,44.0,30.11,SSW,206,2.0,9.0,91,0.00,,,0.00,,2013-02-16 17:11:00,
2013-02-16 09:21:00,46.0,44.0,30.11,SSW,195,3.0,12.0,91,0.00,,,0.00,,2013-02-16 17:21:00,
2013-02-16 09:31:00,46.0,44.0,30.11,SSW,199,4.0,9.0,91,0.00,,,0.00,,2013-02-16 17:31:00,
2013-02-16 09:41:00,46.0,44.0,30.11,SSW,199,4.0,9.0,91,0.00,,,0.00,,2013-02-16 17:41:00,
2013-02-16 09:52:00,46.0,43.0,30.11,SW,216,4.0,13.0,90,0.00,,,0.00,,2013-02-16 17:52:00,
2013-02-16 10:01:00,46.0,43.0,30.11,SSW,201,4.0,13.0,90,0.00,,,0.00,,2013-02-16 18:01:00,
2013-02-16 10:11:00,46.0,43.0,30.11,SSW,200,2.0,11.0,90,0.00,,,0.00,,2013-02-16 18:11:00,
2013-02-16 10:21:00,46.0,43.0,30.11,SSW,200,2.0,11.0,90,0.00,,,0.00,,2013-02-16 18:21:00,
2013-02-16 10:32:00,46.0,43.0,30.11,South,172,3.0,10.0,88,0.00,,,0.00,,2013-02-16 18:32:00,
2013-02-16 10:41:00,46.0,43.0,30.11,South,172,3.0,10.0,88,0.00,,,0.00,,2013-02-16 18:41:00,
2013-02-16 10:51:00,46.0,42.0,30.11,South,190,5.0,10.0,87,0.00,,,0.00,,2013-02-16 18:51:00,
2013-02-16 11:02:00,47.0,43.0,30.11,South,191,5.0,12.0,86,0.00,,,0.00,,2013-02-16 19:02:00,
2013-02-16 11:11:00,47.0,43.0,30.11,South,191,5.0,12.0,86,0.00,,,0.00,,2013-02-16 19:11:00,
2013-02-16 11:21:00,47.0,42.0,30.09,South,181,6.0,13.0,84,0.00,,,0.00,,2013-02-16 19:21:00,
2013-02-16 11:31:00,47.0,42.0,30.09,South,175,9.0,14.0,84,0.00,,,0.00,,2013-02-16 19:31:00,
2013-02-16 11:42:00,47.0,42.0,30.09,South,175,9.0,14.0,84,0.00,,,0.00,,2013-02-16 19:42:00,
2013-02-16 11:52:00,47.0,42.0,30.09,South,171,3.0,12.0,82,0.00,,,0.00,,2013-02-16 19:52:00,
2013-02-16 12:01:00,48.0,42.0,30.10,South,171,2.0,6.0,81,0.00,,,0.00,,2013-02-16 20:01:00,
2013-02-16 12:11:00,48.0,42.0,30.09,South,182,4.0,10.0,79,0.00,,,0.00,,2013-02-16 20:11:00,
2013-02-16 12:21:00,48.0,42.0,30.09,South,182,4.0,10.0,79,0.00,,,0.00,,2013-02-16 20:21:00,
2013-02-16 12:31:00,49.0,41.0,30.08,South,181,5.0,12.0,75,0.00,,,0.00,,2013-02-16 20:31:00,
2013-02-16 12:42:00,50.0,42.0,30.07,SSW,193,3.0,12.0,73,0.00,,,0.00,,2013-02-16 20:42:00,
2013-02-16 12:52:00,50.0,42.0,30.07,SSW,193,3.0,12.0,73,0.00,,,0.00,,2013-02-16 20:52:00,
2013-02-16 13:01:00,50.0,41.0,30.06,South,189,8.0,14.0,70,0.00,,,0.00,,2013-02-16 21:01:00,
2013-02-16 13:11:00,50.0,41.0,30.06,South,189,8.0,14.0,70,0.00,,,0.00,,2013-02-16 21:11:00,
2013-02-16 13:21:00,51.0,40.0,30.06,South,191,9.0,18.0,66,0.00,,,0.00,,2013-02-16 21:21:00,
2013-02-16 13:31:00,51.0,40.0,30.06,South,185,5.0,13.0,65,0.00,,,0.00,,2013-02-16 21:31:00,
2013-02-16 13:41:00,51.0,40.0,30.06,South,185,5.0,13.0,65,0.00,,,0.00,,2013-02-16 21:41:00,
2013-02-16 13:52:00,51.0,40.0,30.06,South,181,6.0,16.0,66,0.00,,,0.00,,2013-02-16 21:52:00,
2013-02-16 14:01:00,50.0,40.0,30.05,SW,220,4.0,11.0,68,0.00,,,0.00,,2013-02-16 22:01:00,
2013-02-16 14:11:00,50.0,40.0,30.05,SW,220,4.0,11.0,68,0.00,,,0.00,,2013-02-16 22:11:00,
2013-02-16 14:21:00,49.0,42.0,30.06,NW,315,8.0,13.0,76,0.00,,,0.00,,2013-02-16 22:21:00,
2013-02-16 14:31:00,46.0,41.0,30.06,North,5,2.0,11.0,84,0.00,,,0.00,,2013-02-16 22:31:00,
2013-02-16 14:42:00,46.0,41.0,30.06,North,5,2.0,11.0,84,0.00,,,0.00,,2013-02-16 22:42:00,
2013-02-16 14:52:00,48.0,42.0,30.06,NW,322,3.0,10.0,80,0.00,,,0.00,,2013-02-16 22:52:00,
2013-02-16 15:02:00,48.0,41.0,30.06,NNW,347,4.0,11.0,76,0.00,,,0.00,,2013-02-16 23:02:00,
2013-02-16 15:11:00,49.0,41.0,30.06,NNW,346,4.0,9.0,75,0.00,,,0.00,,2013-02-16 23:11:00,
2013-02-16 15:21:00,49.0,41.0,30.06,NNW,346,4.0,9.0,75,0.00,,,0.00,,2013-02-16 23:21:00,
2013-02-16 15:31:00,48.0,40.0,30.06,NNE,19,3.0,11.0,75,0.00,,,0.00,,2013-02-16 23:31:00,
2013-02-16 15:41:00,48.0,40.0,30.06,NNE,19,3.0,11.0,75,0.00,,,0.00,,2013-02-16 23:41:00,
2013-02-16 15:52:00,47.0,40.0,30.07,NNE,29,2.0,6.0,77,0.00,,,0.00,,2013-02-16 23:52:00,
2013-02-16 16:01:00,47.0,40.0,30.07,NNE,28,2.0,9.0,76,0.00,,,0.00,,2013-02-17 00:01:00,
2013-02-16 16:11:00,47.0,40.0,30.07,NNE,28,2.0,9.0,76,0.00,,,0.00,,2013-02-17 00:11:00,
2013-02-16 16:21:00,47.0,42.0,30.07,NNE,16,1.0,3.0,82,0.01,,,0.01,,2013-02-17 00:21:00,
2013-02-16 16:31:00,46.0,41.0,30.07,NE,41,1.0,7.0,84,0.01,,,0.01,,2013-02-17 00:31:00,
2013-02-16 16:41:00,46.0,41.0,30.07,NE,41,1.0,7.0,84,0.01,,,0.01,,2013-02-17 00:41:00,
2013-02-16 16:52:00,45.0,41.0,30.08,NE,52,3.0,9.0,86,0.02,,,0.02,,2013-02-17 00:52:00,
2013-02-16 17:01:00,45.0,42.0,30.08,East,83,2.0,5.0,88,0.01,,,0.02,,2013-02-17 01:01:00,
2013-02-16 17:11:00,45.0,42.0,30.08,East,83,2.0,5.0,88,0.01,,,0.02,,2013-02-17 01:11:00,
2013-02-16 17:21:00,45.0,42.0,30.08,NE,49,2.0,5.0,88,0.01,,,0.02,,2013-02-17 01:21:00,
2013-02-16 17:31:00,45.0,42.0,30.08,ENE,77,4.0,7.0,90,0.01,,,0.02,,2013-02-17 01:31:00,
2013-02-16 17:41:00,45.0,42.0,30.08,ENE,77,4.0,7.0,90,0.01,,,0.02,,2013-02-17 01:41:00,
2013-02-16 17:52:00,44.0,42.0,30.07,East,83,3.0,11.0,92,0.00,,,0.02,,2013-02-17 01:52:00,
2013-02-16 18:01:00,44.0,42.0,30.08,ESE,109,3.0,6.0,93,0.00,,,0.02,,2013-02-17 02:01:00,
2013-02-16 18:11:00,44.0,42.0,30.08,ESE,109,3.0,6.0,93,0.00,,,0.02,,2013-02-17 02:11:00,
2013-02-16 18:21:00,44.0,42.0,30.08,ESE,112,4.0,7.0,93,0.00,,,0.02,,2013-02-17 02:21:00,
2013-02-16 18:31:00,43.0,41.0,30.08,East,84,4.0,10.0,93,0.00,,,0.02,,2013-02-17 02:31:00,
2013-02-16 18:41:00,43.0,41.0,30.08,East,84,4.0,10.0,93,0.00,,,0.02,,2013-02-17 02:41:00,
2013-02-16 18:51:00,43.0,41.0,30.09,ESE,109,5.0,10.0,92,0.00,,,0.02,,2013-02-17 02:51:00,
2013-02-16 19:01:00,43.0,40.0,30.09,ESE,112,6.0,9.0,90,0.00,,,0.02,,2013-02-17 03:01:00,
2013-02-16 19:11:00,43.0,40.0,30.09,ESE,110,3.0,10.0,88,0.00,,,0.02,,2013-02-17 03:11:00,
2013-02-16 19:21:00,43.0,40.0,30.09,ESE,110,3.0,10.0,88,0.00,,,0.02,,2013-02-17 03:21:00,
2013-02-16 19:31:00,43.0,40.0,30.09,East,83,3.0,6.0,88,0.00,,,0.02,,2013-02-17 03:31:00,
2013-02-16 19:41:00,43.0,40.0,30.09,East,83,3.0,6.0,88,0.00,,,0.02,,2013-02-17 03:41:00,
2013-02-16 19:51:00,43.0,40.0,30.09,ESE,114,3.0,9.0,88,0.00,,,0.02,,2013-02-17 03:51:00,
2013-02-16 20:01:00,43.0,40.0,30.10,East,82,2.0,7.0,88,0.00,,,0.02,,2013-02-17 04:01:00,
2013-02-16 20:11:00,43.0,40.0,30.11,North,0,0.0,5.0,88,0.00,,,0.02,,2013-02-17 04:11:00,
2013-02-16 20:21:00,43.0,40.0,30.11,North,0,0.0,5.0,88,0.00,,,0.02,,2013-02-17 04:21:00,
2013-02-16 20:31:00,43.0,40.0,30.11,North,0,0.0,3.0,88,0.00,,,0.02,,2013-02-17 04:31:00,
2013-02-16 20:41:00,43.0,40.0,30.11,North,0,0.0,3.0,88,0.00,,,0.02,,2013-02-17 04:41:00,
2013-02-16 20:51:00,43.0,39.0,30.11,South,178,1.0,5.0,87,0.00,,,0.02,,2013-02-17 04:51:00,
2013-02-16 21:01:00,43.0,40.0,30.11,North,0,0.0,4.0,88,0.01,,,0.03,,2013-02-17 05:01:00,
2013-02-16 21:11:00,42.0,39.0,30.11,South,181,1.0,7.0,89,0.01,,,0.03,,2013-02-17 05:11:00,
2013-02-16 21:21:00,42.0,39.0,30.11,South,181,1.0,7.0,89,0.01,,,0.03,,2013-02-17 05:21:00,
2013-02-16 21:32:00,42.0,39.0,30.11,North,0,0.0,7.0,88,0.01,,,0.03,,2013-02-17 05:32:00,
2013-02-16 21:42:00,42.0,39.0,30.11,North,0,0.0,7.0,88,0.01,,,0.03,,2013-02-17 05:42:00,
2013-02-16 21:52:00,42.0,39.0,30.11,North,0,0.0,2.0,88,0.01,,,0.03,,2013-02-17 05:52:00,
2013-02-16 22:01:00,42.0,38.0,30.12,North,0,0.0,5.0,86,0.00,,,0.03,,2013-02-17 06:01:00,
2013-02-16 22:11:00,42.0,38.0,30.12,North,0,0.0,5.0,86,0.00,,,0.03,,2013-02-17 06:11:00,
2013-02-16 22:21:00,42.0,38.0,30.12,South,181,3.0,6.0,86,0.00,,,0.03,,2013-02-17 06:21:00,
2013-02-16 22:31:00,42.0,38.0,30.12,North,0,0.0,3.0,86,0.00,,,0.03,,2013-02-17 06:31:00,
2013-02-16 22:41:00,42.0,38.0,30.12,North,0,0.0,3.0,86,0.00,,,0.03,,2013-02-17 06:41:00,
2013-02-16 22:51:00,42.0,38.0,30.12,SSE,160,1.0,3.0,87,0.00,,,0.03,,2013-02-17 06:51:00,
2013-02-16 23:01:00,42.0,38.0,30.12,North,0,0.0,3.0,87,0.00,,,0.03,,2013-02-17 07:01:00,
2013-02-16 23:11:00,42.0,38.0,30.13,North,0,0.0,2.0,87,0.00,,,0.03,,2013-02-17 07:11:00,
2013-02-16 23:21:00,42.0,38.0,30.13,North,0,0.0,2.0,87,0.00,,,0.03,,2013-02-17 07:21:00,
2013-02-16 23:31:00,41.0,37.0,30.13,North,0,0.0,2.0,86,0.00,,,0.03,,2013-02-17 07:31:00,
2013-02-16 23:41:00,41.0,37.0,30.13,North,0,0.0,2.0,86,0.00,,,0.03,,2013-02-17 07:41:00,
2013-02-16 23:52:00,41.0,37.0,30.13,North,0,0.0,4.0,86,0.00,,,0.03,,2013-02-17 07:52:00,